Terminal Aerodrome Forecast
Issued by NWS Chicago, IL

Home | Current Version | Previous Version | Text Only | Print | Product List | Glossary Off
Versions: 1 2 3 4 5 6 7 8 9 10 11 12 13 14 15 16 17 18 19 20 21 22 23 24 25 26 27 28 29 30 31 32 33

000
FTUS43 KLOT 271200 AAB
TAFRFD
TAF AMD
KRFD 271258Z 2713/2812 32010KT P6SM -SHSN SCT020 BKN045
     FM271400 32010G16KT P6SM BKN018 BKN045
     FM271800 32012G18KT P6SM SCT025 BKN035
     FM272000 32011G15KT P6SM SCT035
     FM280100 VRB03KT P6SM SCT250
     FM280700 17004KT P6SM BKN100=

USA.gov is the U.S. government's official web portal to all federal, state and local government web resources and services.